Time;durP1;ratioP1;P1;durP2;ratioP2;P2;SDS_P1;SDS_P2;PMS_P1;PMS_P2;Temp;Humidity;BMP_temperature;BMP_pressure;BME280_temperature;BME280_humidity;BME280_pressure;Samples;Min_cycle;Max_cycle;Signal;HPM_P1;HPM_P2
2021/12/17 00:01:09;;;;;;;68.43;45.20;;;;;3.10;103465.00;;;;10466712;28;20915;-78
2021/12/17 00:11:26;;;;;;;65.27;41.37;;;;;3.00;103458.00;;;;10453115;28;20193;-78
2021/12/17 00:16:34;;;;;;;118.13;49.63;;;;;3.00;103435.00;;;;10497429;28;20223;-78
2021/12/17 00:48:25;;;;;;;103.83;44.83;;;;;2.80;103427.00;;;;10502106;28;20185;-78
2021/12/17 00:53:28;;;;;;;155.77;50.00;;;;;2.70;103430.00;;;;10473162;28;20189;-78
2021/12/17 00:58:30;;;;;;;130.50;47.13;;;;;2.70;103419.00;;;;10479509;28;20268;-78
2021/12/17 01:03:32;;;;;;;109.40;43.53;;;;;2.70;103430.00;;;;10463131;28;20205;-78
2021/12/17 01:08:35;;;;;;;126.37;47.67;;;;;2.70;103422.00;;;;10503838;28;20222;-78
2021/12/17 01:13:41;;;;;;;96.53;43.13;;;;;2.60;103422.00;;;;10489840;28;20284;-78
2021/12/17 01:19:23;;;;;;;77.63;42.87;;;;;2.50;103418.00;;;;10498680;28;20220;-78
2021/12/17 01:25:00;;;;;;;102.00;45.57;;;;;2.50;103399.00;;;;10470235;28;20632;-78
2021/12/17 01:35:45;;;;;;;86.53;43.37;;;;;2.60;103425.00;;;;10521163;28;20563;-78
2021/12/17 01:41:35;;;;;;;111.47;47.33;;;;;2.60;103410.00;;;;10485686;28;20236;-78
2021/12/17 01:46:38;;;;;;;123.10;50.67;;;;;2.60;103414.00;;;;10466237;28;20564;-79
2021/12/17 02:02:24;;;;;;;101.27;48.37;;;;;2.80;103420.00;;;;10490334;28;20668;-78
2021/12/17 02:07:26;;;;;;;96.53;50.20;;;;;2.90;103420.00;;;;10483453;28;20278;-78
2021/12/17 02:13:05;;;;;;;111.37;48.47;;;;;2.90;103413.00;;;;10477198;28;20189;-77
2021/12/17 02:28:55;;;;;;;159.10;53.13;;;;;3.00;103421.00;;;;10488686;28;20721;-78
2021/12/17 02:34:10;;;;;;;102.47;45.60;;;;;3.10;103429.00;;;;10487531;28;20236;-77
2021/12/17 02:49:52;;;;;;;93.53;43.27;;;;;3.30;103410.00;;;;10508647;28;20560;-77
2021/12/17 02:54:57;;;;;;;110.93;46.27;;;;;3.40;103417.00;;;;10450913;28;20193;-78
2021/12/17 02:59:59;;;;;;;99.90;42.43;;;;;3.40;103423.00;;;;10449715;28;20319;-78
2021/12/17 03:05:02;;;;;;;103.43;42.23;;;;;3.40;103400.00;;;;10472894;28;20197;-78
2021/12/17 03:10:08;;;;;;;121.50;44.10;;;;;3.40;103401.00;;;;10511021;28;20249;-78
2021/12/17 03:15:22;;;;;;;94.63;41.83;;;;;3.50;103391.00;;;;10474289;28;20194;-78
2021/12/17 03:25:49;;;;;;;116.83;44.90;;;;;3.60;103385.00;;;;10462785;28;20189;-78
2021/12/17 03:30:54;;;;;;;102.97;44.47;;;;;3.60;103386.00;;;;10465292;28;20292;-78
2021/12/17 03:35:58;;;;;;;83.20;42.03;;;;;3.50;103388.00;;;;10464393;28;20220;-78
2021/12/17 03:41:12;;;;;;;85.67;41.50;;;;;3.50;103381.00;;;;10496500;28;20234;-78
2021/12/17 03:46:22;;;;;;;87.10;41.00;;;;;3.40;103381.00;;;;10477717;28;20186;-78
2021/12/17 03:51:27;;;;;;;82.13;40.97;;;;;3.30;103383.00;;;;10464830;28;20186;-78
2021/12/17 03:56:29;;;;;;;81.77;42.27;;;;;3.30;103387.00;;;;10448431;28;20210;-78
2021/12/17 04:01:31;;;;;;;80.73;41.20;;;;;3.30;103383.00;;;;10458566;28;20221;-78
2021/12/17 04:06:33;;;;;;;97.47;42.27;;;;;3.30;103388.00;;;;10453929;28;20190;-78
2021/12/17 04:12:09;;;;;;;119.07;45.00;;;;;3.40;103391.00;;;;10444995;28;20201;-78
2021/12/17 04:17:27;;;;;;;101.80;41.83;;;;;3.50;103395.00;;;;10460535;28;20255;-78
2021/12/17 04:22:29;;;;;;;70.40;37.23;;;;;3.50;103412.00;;;;10462557;28;20303;-78
2021/12/17 04:27:32;;;;;;;85.00;40.73;;;;;3.60;103409.00;;;;10444861;28;20181;-78
2021/12/17 04:32:35;;;;;;;72.87;37.10;;;;;3.60;103403.00;;;;10455061;28;20218;-78
2021/12/17 04:37:37;;;;;;;87.10;41.73;;;;;3.60;103394.00;;;;10446449;28;20217;-78
2021/12/17 04:42:54;;;;;;;86.10;41.40;;;;;3.60;103392.00;;;;10447997;28;20193;-78
2021/12/17 04:59:07;;;;;;;59.37;35.43;;;;;3.60;103382.00;;;;10464959;28;20224;-78
2021/12/17 05:04:09;;;;;;;63.47;33.77;;;;;3.60;103381.00;;;;10411029;28;20209;-79
2021/12/17 05:09:25;;;;;;;74.93;34.30;;;;;3.60;103384.00;;;;10476302;28;20189;-78
2021/12/17 05:19:51;;;;;;;79.90;35.70;;;;;3.60;103401.00;;;;10503566;28;20212;-78
2021/12/17 05:24:53;;;;;;;79.17;36.50;;;;;3.60;103414.00;;;;10484747;28;20205;-78
2021/12/17 05:29:56;;;;;;;66.90;34.67;;;;;3.60;103418.00;;;;10528544;28;20185;-78
2021/12/17 05:34:59;;;;;;;91.83;38.27;;;;;3.50;103421.00;;;;10490247;28;20216;-78
2021/12/17 05:40:02;;;;;;;95.10;35.70;;;;;3.60;103410.00;;;;10485826;28;20201;-78
2021/12/17 05:45:21;;;;;;;96.30;39.37;;;;;3.60;103418.00;;;;10468887;28;20558;-78
2021/12/17 05:50:24;;;;;;;97.83;40.73;;;;;3.60;103411.00;;;;10509880;28;20191;-78
2021/12/17 05:55:26;;;;;;;97.87;40.97;;;;;3.60;103412.00;;;;10468708;28;20194;-78
2021/12/17 06:00:30;;;;;;;98.40;39.20;;;;;3.60;103422.00;;;;10485511;28;20209;-78
2021/12/17 06:05:47;;;;;;;90.57;38.33;;;;;3.60;103418.00;;;;10478729;28;20220;-78
2021/12/17 06:10:49;;;;;;;151.47;45.73;;;;;3.70;103425.00;;;;10500175;28;20285;-78
2021/12/17 06:15:52;;;;;;;136.27;43.57;;;;;3.70;103435.00;;;;10468343;28;20533;-78
2021/12/17 06:20:53;;;;;;;97.23;40.57;;;;;3.80;103445.00;;;;10493662;28;20216;-78
2021/12/17 06:25:55;;;;;;;133.20;45.43;;;;;3.80;103449.00;;;;10469281;28;20194;-79
2021/12/17 06:30:57;;;;;;;155.47;46.47;;;;;3.80;103441.00;;;;10455436;28;20212;-78
2021/12/17 06:36:04;;;;;;;166.90;50.47;;;;;3.90;103443.00;;;;10475871;28;20227;-78
2021/12/17 06:41:06;;;;;;;175.33;49.00;;;;;3.90;103432.00;;;;10518025;28;20640;-78
2021/12/17 07:35:43;;;;;;;153.20;44.63;;;;;4.20;103451.00;;;;10440583;28;20301;-79
2021/12/17 07:40:47;;;;;;;157.73;46.30;;;;;4.20;103460.00;;;;10434140;28;20680;-79
2021/12/17 07:45:50;;;;;;;154.63;43.13;;;;;4.30;103447.00;;;;10464518;28;20711;-78
2021/12/17 07:50:59;;;;;;;245.37;52.37;;;;;4.30;103453.00;;;;10441151;28;20246;-78
2021/12/17 07:56:10;;;;;;;200.33;48.33;;;;;4.30;103452.00;;;;10444102;28;20198;-78
2021/12/17 08:01:15;;;;;;;194.10;47.60;;;;;4.40;103453.00;;;;10426447;28;20193;-78
2021/12/17 08:06:20;;;;;;;213.37;48.60;;;;;4.40;103449.00;;;;10465335;28;20194;-78
2021/12/17 08:11:43;;;;;;;208.63;44.97;;;;;4.50;103442.00;;;;10501269;28;20196;-78
2021/12/17 08:16:59;;;;;;;214.30;49.37;;;;;4.50;103444.00;;;;10441408;28;20216;-78
2021/12/17 08:28:09;;;;;;;212.67;46.70;;;;;4.60;103445.00;;;;10516429;28;20193;-78
2021/12/17 08:32:50;;;;;;;219.20;45.07;;;;;4.70;103458.00;;;;10459278;28;20221;-78
2021/12/17 08:37:54;;;;;;;206.83;46.77;;;;;4.70;103455.00;;;;10501266;28;20201;-78
2021/12/17 08:42:56;;;;;;;207.87;46.00;;;;;4.70;103456.00;;;;10485336;28;20200;-78
2021/12/17 08:48:00;;;;;;;202.43;44.60;;;;;4.70;103458.00;;;;10497500;28;20193;-78
2021/12/17 08:53:18;;;;;;;185.10;42.30;;;;;4.80;103455.00;;;;10489467;28;20173;-78
2021/12/17 08:58:20;;;;;;;239.23;48.70;;;;;4.90;103454.00;;;;10491220;28;20204;-78
2021/12/17 09:03:31;;;;;;;188.87;45.10;;;;;4.90;103465.00;;;;10494724;28;20196;-78
2021/12/17 09:08:56;;;;;;;186.50;43.13;;;;;5.00;103468.00;;;;10527405;28;20774;-78
2021/12/17 09:14:04;;;;;;;176.23;46.03;;;;;5.10;103474.00;;;;10497944;28;20196;-78
2021/12/17 09:19:24;;;;;;;163.57;44.00;;;;;5.30;103483.00;;;;10504008;28;20208;-78
2021/12/17 09:24:34;;;;;;;166.37;44.77;;;;;5.40;103496.00;;;;10487786;28;20284;-78
2021/12/17 09:29:51;;;;;;;169.73;47.20;;;;;5.50;103496.00;;;;10514866;28;20185;-78
2021/12/17 09:34:58;;;;;;;158.47;45.33;;;;;5.60;103495.00;;;;10470296;28;20758;-78
2021/12/17 09:40:04;;;;;;;154.13;45.47;;;;;5.70;103501.00;;;;10467939;28;20259;-78
2021/12/17 09:45:07;;;;;;;160.60;46.20;;;;;5.80;103498.00;;;;10509681;28;20279;-78
2021/12/17 09:50:11;;;;;;;168.37;46.37;;;;;5.80;103510.00;;;;10515095;28;20907;-78
2021/12/17 09:55:13;;;;;;;156.30;47.33;;;;;5.90;103521.00;;;;10507013;28;20246;-78
2021/12/17 10:00:19;;;;;;;156.00;48.20;;;;;5.90;103525.00;;;;10476270;28;20212;-78
2021/12/17 10:05:26;;;;;;;163.30;48.43;;;;;5.90;103524.00;;;;10492840;28;20867;-78
2021/12/17 10:10:37;;;;;;;168.17;46.80;;;;;6.00;103523.00;;;;10476771;28;20276;-78
2021/12/17 10:15:42;;;;;;;193.23;48.43;;;;;6.10;103526.00;;;;10482945;28;20201;-78
2021/12/17 10:20:47;;;;;;;181.53;49.17;;;;;6.10;103527.00;;;;10508068;28;20205;-78
2021/12/17 10:25:49;;;;;;;185.10;50.33;;;;;6.20;103515.00;;;;10477684;28;20193;-78
2021/12/17 10:30:53;;;;;;;175.20;50.93;;;;;6.30;103512.00;;;;10485817;28;20201;-78
2021/12/17 10:36:00;;;;;;;171.50;49.60;;;;;6.40;103509.00;;;;10466725;28;20208;-78
2021/12/17 10:41:08;;;;;;;202.57;52.63;;;;;6.50;103502.00;;;;10480880;28;20233;-78
2021/12/17 10:46:30;;;;;;;174.63;49.53;;;;;6.50;103508.00;;;;10487740;28;20197;-78
2021/12/17 10:56:47;;;;;;;198.27;53.33;;;;;6.70;103514.00;;;;10485151;28;20185;-78
2021/12/17 11:01:55;;;;;;;238.83;53.90;;;;;6.80;103513.00;;;;10479270;28;20202;-78
2021/12/17 11:07:05;;;;;;;283.57;55.63;;;;;6.90;103500.00;;;;10457546;28;20205;-78
2021/12/17 11:12:12;;;;;;;265.43;54.43;;;;;6.90;103505.00;;;;10501435;28;20247;-78
2021/12/17 11:17:20;;;;;;;265.93;55.37;;;;;7.00;103496.00;;;;10496990;28;20740;-78
2021/12/17 11:22:41;;;;;;;272.67;56.33;;;;;7.10;103502.00;;;;10450477;28;20300;-78
2021/12/17 11:27:45;;;;;;;267.30;56.23;;;;;7.20;103487.00;;;;10517554;28;20189;-78
2021/12/17 11:32:48;;;;;;;306.50;56.67;;;;;7.20;103495.00;;;;10506741;28;20244;-79
2021/12/17 11:37:53;;;;;;;317.37;60.30;;;;;7.30;103490.00;;;;10480318;28;20295;-78
2021/12/17 11:43:14;;;;;;;253.90;56.57;;;;;7.30;103483.00;;;;10520009;27;20548;-79
2021/12/17 11:48:22;;;;;;;253.67;54.53;;;;;7.40;103485.00;;;;10493771;28;20544;-79
2021/12/17 11:53:24;;;;;;;306.30;59.07;;;;;7.50;103469.00;;;;10506185;28;20199;-79
2021/12/17 11:58:53;;;;;;;274.57;54.27;;;;;7.50;103485.00;;;;10496249;28;20235;-79
2021/12/17 12:04:38;;;;;;;276.03;55.03;;;;;7.50;103473.00;;;;10476314;28;20197;-79
2021/12/17 12:09:57;;;;;;;234.43;52.67;;;;;7.60;103474.00;;;;10485391;28;20221;-79
2021/12/17 12:15:27;;;;;;;229.80;52.73;;;;;7.60;103469.00;;;;10515537;28;20193;-79
2021/12/17 12:20:44;;;;;;;239.20;51.13;;;;;7.70;103470.00;;;;10480339;28;20241;-76
2021/12/17 12:26:13;;;;;;;227.37;51.30;;;;;7.70;103480.00;;;;10474066;28;20212;-79
2021/12/17 12:31:24;;;;;;;253.97;55.10;;;;;7.70;103474.00;;;;10452059;28;20262;-79
2021/12/17 12:36:53;;;;;;;243.90;50.83;;;;;7.80;103471.00;;;;10468727;28;20227;-79
2021/12/17 12:41:55;;;;;;;219.03;49.63;;;;;7.80;103463.00;;;;10428478;28;20223;-79
2021/12/17 12:46:57;;;;;;;251.20;52.33;;;;;7.80;103459.00;;;;10439417;28;20188;-79
2021/12/17 12:52:21;;;;;;;251.07;52.07;;;;;7.90;103450.00;;;;10430898;28;20226;-79
2021/12/17 12:57:28;;;;;;;246.60;51.33;;;;;8.00;103447.00;;;;10414553;28;20248;-79
2021/12/17 13:02:30;;;;;;;252.67;52.30;;;;;8.00;103440.00;;;;10415741;28;20206;-78
2021/12/17 13:07:44;;;;;;;247.13;54.70;;;;;8.00;103443.00;;;;10410990;28;20268;-78
2021/12/17 13:13:07;;;;;;;258.27;55.33;;;;;8.10;103449.00;;;;10404214;28;20182;-79
2021/12/17 13:23:49;;;;;;;233.50;51.03;;;;;8.10;103450.00;;;;10425177;28;20653;-77
2021/12/17 13:29:05;;;;;;;226.37;53.07;;;;;8.10;103434.00;;;;10437452;28;20226;-77
2021/12/17 13:34:29;;;;;;;219.27;48.53;;;;;8.10;103420.00;;;;10411741;28;20219;-78
2021/12/17 13:39:53;;;;;;;195.70;45.13;;;;;8.10;103415.00;;;;10393415;28;20259;-78
2021/12/17 13:45:00;;;;;;;192.53;46.73;;;;;8.10;103403.00;;;;10407918;28;20198;-78
2021/12/17 13:50:12;;;;;;;178.77;44.10;;;;;8.10;103400.00;;;;10404750;28;20194;-78
2021/12/17 13:55:25;;;;;;;201.67;45.27;;;;;8.10;103403.00;;;;10408644;28;20199;-78
2021/12/17 14:00:36;;;;;;;195.97;47.43;;;;;8.20;103393.00;;;;10439115;28;20211;-78
2021/12/17 14:05:45;;;;;;;198.07;47.43;;;;;8.20;103399.00;;;;10426892;28;20187;-78
2021/12/17 14:10:49;;;;;;;205.47;46.47;;;;;8.20;103397.00;;;;10387474;28;20847;-78
2021/12/17 14:15:52;;;;;;;195.63;47.90;;;;;8.20;103392.00;;;;10403704;28;20187;-76
2021/12/17 14:20:59;;;;;;;189.83;44.77;;;;;8.20;103400.00;;;;10397424;28;20207;-77
2021/12/17 14:26:09;;;;;;;169.50;44.97;;;;;8.20;103400.00;;;;10420441;28;20604;-78
2021/12/17 14:31:19;;;;;;;206.77;46.67;;;;;8.10;103401.00;;;;10418703;28;20205;-77
2021/12/17 14:36:39;;;;;;;173.00;44.23;;;;;8.10;103402.00;;;;10396653;28;20214;-77
2021/12/17 14:42:02;;;;;;;183.77;44.10;;;;;8.10;103398.00;;;;10401458;28;20214;-77
2021/12/17 14:47:20;;;;;;;162.17;42.53;;;;;8.10;103389.00;;;;10400822;28;20209;-77
2021/12/17 14:59:06;;;;;;;167.63;44.23;;;;;8.10;103403.00;;;;10413052;28;20613;-77
2021/12/17 15:08:37;;;;;;;152.13;42.67;;;;;8.10;103416.00;;;;10398178;28;20254;-77
2021/12/17 15:13:40;;;;;;;147.27;41.20;;;;;8.10;103424.00;;;;10387730;28;20612;-77
2021/12/17 15:18:43;;;;;;;145.63;41.63;;;;;8.10;103414.00;;;;10401067;28;20300;-77
2021/12/17 15:23:46;;;;;;;158.80;42.90;;;;;8.00;103414.00;;;;10414360;28;20190;-77
2021/12/17 15:28:48;;;;;;;155.17;43.37;;;;;8.00;103417.00;;;;10410857;28;20225;-78
2021/12/17 15:34:06;;;;;;;141.43;41.63;;;;;8.00;103420.00;;;;10446213;28;20755;-77
2021/12/17 15:39:08;;;;;;;157.63;42.10;;;;;8.00;103419.00;;;;10427431;28;20294;-77
2021/12/17 15:44:11;;;;;;;148.30;41.23;;;;;8.10;103420.00;;;;10403704;28;20672;-77
2021/12/17 15:49:13;;;;;;;144.40;42.93;;;;;8.10;103416.00;;;;10425924;28;20191;-77
2021/12/17 15:54:24;;;;;;;140.47;41.30;;;;;8.10;103426.00;;;;10422823;28;20194;-77
2021/12/17 15:59:26;;;;;;;145.67;41.33;;;;;8.10;103421.00;;;;10426668;28;20202;-77
2021/12/17 16:04:36;;;;;;;135.77;39.30;;;;;8.10;103425.00;;;;10445276;28;20195;-77
2021/12/17 16:25:46;;;;;;;124.70;38.90;;;;;8.10;103421.00;;;;10415313;28;20236;-76
2021/12/17 16:30:48;;;;;;;130.33;39.70;;;;;8.10;103425.00;;;;10443945;28;20199;-77
2021/12/17 16:35:50;;;;;;;126.97;38.33;;;;;8.10;103427.00;;;;10410111;28;20223;-77
2021/12/17 16:40:52;;;;;;;129.27;40.30;;;;;8.10;103431.00;;;;10406344;28;20297;-77
2021/12/17 16:46:11;;;;;;;123.87;38.03;;;;;8.10;103432.00;;;;10439129;28;20236;-77
2021/12/17 16:51:15;;;;;;;135.40;39.90;;;;;8.10;103427.00;;;;10424722;28;20182;-77
2021/12/17 16:56:18;;;;;;;110.13;36.00;;;;;8.00;103432.00;;;;10407640;28;20202;-77
2021/12/17 17:01:25;;;;;;;122.33;40.53;;;;;8.00;103437.00;;;;10421023;28;20732;-76
2021/12/17 17:06:27;;;;;;;115.03;36.13;;;;;8.00;103437.00;;;;10406335;28;20195;-77
2021/12/17 17:11:30;;;;;;;94.27;31.37;;;;;8.00;103436.00;;;;10432472;28;20942;-77
2021/12/17 17:16:32;;;;;;;93.40;31.50;;;;;8.00;103436.00;;;;10451600;28;20198;-77
2021/12/17 17:21:34;;;;;;;83.83;29.13;;;;;8.00;103442.00;;;;10380704;28;20207;-77
2021/12/17 17:26:38;;;;;;;68.40;26.50;;;;;8.00;103436.00;;;;10406928;28;20226;-76
2021/12/17 17:31:39;;;;;;;63.50;26.17;;;;;8.10;103446.00;;;;10411983;28;20183;-76
2021/12/17 17:36:45;;;;;;;70.70;27.67;;;;;8.00;103445.00;;;;10426782;28;20218;-76
2021/12/17 17:41:47;;;;;;;50.53;22.40;;;;;8.00;103440.00;;;;10421278;28;20278;-76
2021/12/17 17:46:49;;;;;;;53.10;23.47;;;;;8.10;103437.00;;;;10459330;28;20195;-77
2021/12/17 17:51:51;;;;;;;61.00;26.27;;;;;8.00;103448.00;;;;10426818;28;20539;-76
2021/12/17 17:56:53;;;;;;;54.13;23.60;;;;;8.00;103448.00;;;;10455687;28;20237;-76
2021/12/17 18:01:55;;;;;;;56.57;21.70;;;;;8.10;103455.00;;;;10430564;28;20669;-76
2021/12/17 18:06:57;;;;;;;49.23;22.53;;;;;8.00;103458.00;;;;10415414;28;20194;-77
2021/12/17 18:12:02;;;;;;;43.90;21.30;;;;;8.00;103461.00;;;;10421215;28;20654;-76
2021/12/17 18:17:07;;;;;;;48.23;21.50;;;;;8.00;103451.00;;;;10406269;28;20194;-76
2021/12/17 18:22:09;;;;;;;42.17;17.97;;;;;8.00;103458.00;;;;10410556;28;20613;-76
2021/12/17 18:27:12;;;;;;;41.97;18.57;;;;;8.00;103447.00;;;;10432060;28;20733;-76
2021/12/17 18:32:14;;;;;;;36.33;19.13;;;;;8.00;103446.00;;;;10459658;28;20230;-76
2021/12/17 18:37:16;;;;;;;39.97;18.27;;;;;8.00;103447.00;;;;10430973;28;20267;-76
2021/12/17 18:47:39;;;;;;;32.67;17.37;;;;;8.00;103453.00;;;;10418310;28;20229;-76
2021/12/17 18:52:41;;;;;;;31.93;17.73;;;;;8.00;103461.00;;;;10428716;28;20708;-77
2021/12/17 18:57:43;;;;;;;32.13;16.83;;;;;8.00;103458.00;;;;10445166;28;20217;-77
2021/12/17 19:02:45;;;;;;;35.33;17.33;;;;;8.00;103459.00;;;;10414571;28;20207;-77
2021/12/17 19:07:48;;;;;;;33.90;18.30;;;;;8.00;103459.00;;;;10417784;28;20198;-77
2021/12/17 19:12:51;;;;;;;30.80;18.23;;;;;8.00;103462.00;;;;10382295;28;20306;-77
2021/12/17 19:17:53;;;;;;;32.83;16.40;;;;;8.00;103455.00;;;;10443889;28;20195;-77
2021/12/17 19:23:00;;;;;;;32.57;18.40;;;;;8.00;103454.00;;;;10400800;28;20207;-76
2021/12/17 19:28:04;;;;;;;29.73;18.53;;;;;8.00;103445.00;;;;10412086;28;20704;-77
2021/12/17 19:33:07;;;;;;;36.30;17.27;;;;;8.00;103446.00;;;;10428753;28;20681;-77
2021/12/17 19:38:09;;;;;;;36.43;18.60;;;;;8.00;103454.00;;;;10395434;28;20195;-77
2021/12/17 19:43:11;;;;;;;36.60;19.50;;;;;7.90;103447.00;;;;10389693;28;20211;-77
2021/12/17 19:48:26;;;;;;;40.80;20.70;;;;;7.90;103447.00;;;;10397349;28;20240;-77
2021/12/17 19:53:29;;;;;;;35.80;18.93;;;;;7.90;103449.00;;;;10409647;28;20190;-76
2021/12/17 19:58:30;;;;;;;39.33;21.30;;;;;7.90;103441.00;;;;10389094;28;20191;-76
2021/12/17 20:03:37;;;;;;;34.20;20.43;;;;;7.80;103451.00;;;;10430447;28;20657;-77
2021/12/17 20:08:39;;;;;;;37.10;20.27;;;;;7.80;103454.00;;;;10417102;28;20201;-76
2021/12/17 20:13:42;;;;;;;35.47;19.77;;;;;7.80;103447.00;;;;10355104;28;20713;-76
2021/12/17 20:18:45;;;;;;;31.13;18.50;;;;;7.80;103450.00;;;;10415417;28;20198;-76
2021/12/17 20:23:47;;;;;;;31.17;18.13;;;;;7.80;103452.00;;;;10430720;28;20202;-76
2021/12/17 20:28:50;;;;;;;36.27;19.10;;;;;7.70;103454.00;;;;10399456;28;20194;-76
2021/12/17 20:33:53;;;;;;;28.90;17.93;;;;;7.70;103449.00;;;;10442483;28;20745;-76
2021/12/17 20:39:00;;;;;;;25.70;16.43;;;;;7.70;103464.00;;;;10437884;28;20210;-76
2021/12/17 20:44:06;;;;;;;26.80;17.57;;;;;7.70;103459.00;;;;10436993;28;20298;-76
2021/12/17 20:49:10;;;;;;;25.93;16.77;;;;;7.70;103457.00;;;;10413842;28;20188;-76
2021/12/17 20:54:13;;;;;;;26.77;17.77;;;;;7.70;103455.00;;;;10407413;28;20200;-76
2021/12/17 20:59:15;;;;;;;26.87;17.17;;;;;7.70;103460.00;;;;10428652;28;20286;-76
2021/12/17 21:04:19;;;;;;;27.63;18.80;;;;;7.60;103462.00;;;;10409518;28;20210;-76
2021/12/17 21:09:23;;;;;;;29.00;19.20;;;;;7.60;103459.00;;;;10451774;28;20569;-75
2021/12/17 21:14:26;;;;;;;29.33;19.47;;;;;7.60;103454.00;;;;10419699;28;20221;-76
2021/12/17 21:19:29;;;;;;;32.57;20.17;;;;;7.50;103449.00;;;;10428843;28;20195;-76
2021/12/17 21:24:31;;;;;;;32.20;19.93;;;;;7.50;103458.00;;;;10388946;28;20214;-76
2021/12/17 21:29:39;;;;;;;36.07;20.80;;;;;7.50;103452.00;;;;10416103;28;20575;-76
2021/12/17 21:34:41;;;;;;;31.53;19.40;;;;;7.40;103458.00;;;;10410794;28;20206;-76
2021/12/17 21:39:43;;;;;;;31.27;20.63;;;;;7.40;103458.00;;;;10440841;28;20206;-76
2021/12/17 21:44:47;;;;;;;34.83;20.40;;;;;7.40;103460.00;;;;10421587;28;20198;-76
2021/12/17 21:49:50;;;;;;;37.33;22.43;;;;;7.30;103461.00;;;;10425449;28;20183;-76
2021/12/17 21:54:52;;;;;;;38.73;22.67;;;;;7.30;103450.00;;;;10423000;28;20187;-76
2021/12/17 21:59:54;;;;;;;41.73;24.87;;;;;7.20;103448.00;;;;10449463;28;20298;-77
2021/12/17 22:04:56;;;;;;;44.57;25.27;;;;;7.10;103436.00;;;;10420131;28;20250;-76
2021/12/17 22:09:58;;;;;;;48.60;27.20;;;;;7.10;103436.00;;;;10440417;28;20252;-76
2021/12/17 22:15:00;;;;;;;46.37;28.00;;;;;7.00;103423.00;;;;10411506;28;20209;-76
2021/12/17 22:20:22;;;;;;;48.67;27.90;;;;;6.90;103431.00;;;;10386938;28;20214;-76
2021/12/17 22:25:25;;;;;;;50.57;29.27;;;;;6.80;103432.00;;;;10415283;28;20230;-76
2021/12/17 22:30:27;;;;;;;53.40;31.93;;;;;6.70;103430.00;;;;10423162;28;20191;-76
2021/12/17 22:35:29;;;;;;;50.50;29.87;;;;;6.70;103439.00;;;;10405027;28;20222;-76
2021/12/17 22:40:38;;;;;;;52.43;30.53;;;;;6.70;103434.00;;;;10443846;28;20219;-76
2021/12/17 22:45:41;;;;;;;52.57;30.67;;;;;6.50;103438.00;;;;10422857;28;20195;-76
2021/12/17 22:50:50;;;;;;;54.23;30.63;;;;;6.40;103444.00;;;;10398414;28;20187;-76
2021/12/17 22:56:00;;;;;;;53.40;30.93;;;;;6.30;103443.00;;;;10389777;28;20678;-77
2021/12/17 23:01:19;;;;;;;55.17;30.77;;;;;6.10;103444.00;;;;10440303;28;20221;-77
2021/12/17 23:06:29;;;;;;;51.90;28.97;;;;;6.00;103439.00;;;;10395611;28;20253;-77
2021/12/17 23:11:34;;;;;;;55.07;32.27;;;;;6.00;103437.00;;;;10401041;28;20195;-77
2021/12/17 23:16:39;;;;;;;53.13;29.23;;;;;5.90;103433.00;;;;10428910;28;20210;-77
2021/12/17 23:21:41;;;;;;;52.40;29.33;;;;;5.80;103434.00;;;;10424908;28;20206;-77
2021/12/17 23:26:43;;;;;;;51.93;28.00;;;;;5.70;103445.00;;;;10383653;28;20199;-77
2021/12/17 23:31:46;;;;;;;55.67;31.00;;;;;5.60;103436.00;;;;10426911;28;20685;-77
2021/12/17 23:36:49;;;;;;;56.33;30.50;;;;;5.70;103447.00;;;;10411156;28;20215;-77
2021/12/17 23:41:52;;;;;;;57.53;31.93;;;;;5.70;103434.00;;;;10439581;28;20645;-77
2021/12/17 23:46:54;;;;;;;53.43;30.10;;;;;5.70;103434.00;;;;10425279;28;20545;-77
2021/12/17 23:51:56;;;;;;;57.00;30.93;;;;;5.80;103437.00;;;;10452090;28;20197;-77
2021/12/17 23:56:58;;;;;;;61.17;32.00;;;;;5.90;103440.00;;;;10445879;28;20194;-77
